Time;durP1;ratioP1;P1;durP2;ratioP2;P2;SDS_P1;SDS_P2;PMS_P1;PMS_P2;Temp;Humidity;BMP_temperature;BMP_pressure;BME280_temperature;BME280_humidity;BME280_pressure;Samples;Min_cycle;Max_cycle;Signal;HPM_P1;HPM_P2
2022/07/27 00:01:29;;;;;;;;;;;;;;;21.50;72.14;99160.19;4929663;29;19935;-68
2022/07/27 00:03:56;;;;;;;;;;;;;;;21.48;72.45;99160.56;4927262;29;20017;-65
2022/07/27 00:06:22;;;;;;;;;;;;;;;21.45;72.30;99155.69;4926349;29;19945;-65
2022/07/27 00:08:48;;;;;;;;;;;;;;;21.43;72.42;99160.81;4941958;29;19930;-66
2022/07/27 00:11:14;;;;;;;;;;;;;;;21.41;72.49;99154.03;4928583;29;20421;-66
2022/07/27 00:13:40;;;;;;;;;;;;;;;21.42;72.45;99159.22;4926650;29;19931;-67
2022/07/27 00:16:05;;;;;;;;;;;;;;;21.48;72.83;99163.34;4924819;29;19985;-67
2022/07/27 00:18:32;;;;;;;;;;;;;;;21.50;72.89;99152.66;4926020;29;20030;-67
2022/07/27 00:20:59;;;;;;;;;;;;;;;21.49;72.74;99162.16;4928416;29;19937;-67
2022/07/27 00:23:25;;;;;;;;;;;;;;;21.48;72.68;99159.75;4926827;29;20034;-66
2022/07/27 00:25:51;;;;;;;;;;;;;;;21.44;72.90;99159.66;4929246;29;19965;-66
2022/07/27 00:28:16;;;;;;;;;;;;;;;21.36;72.84;99158.69;4930261;29;19966;-66
2022/07/27 00:30:42;;;;;;;;;;;;;;;21.29;73.20;99158.53;4928094;29;20358;-68
2022/07/27 00:33:08;;;;;;;;;;;;;;;21.28;73.21;99159.72;4929437;29;19938;-69
2022/07/27 00:35:33;;;;;;;;;;;;;;;21.25;73.40;99157.66;4927369;28;20433;-67
2022/07/27 00:38:01;;;;;;;;;;;;;;;21.23;73.51;99165.56;4929805;28;19977;-66
2022/07/27 00:40:26;;;;;;;;;;;;;;;21.19;73.77;99161.88;4929202;28;20342;-67
2022/07/27 00:42:52;;;;;;;;;;;;;;;21.13;73.76;99160.56;4931440;29;19937;-66
2022/07/27 00:45:18;;;;;;;;;;;;;;;21.11;73.84;99155.34;4929904;29;19930;-67
2022/07/27 00:47:43;;;;;;;;;;;;;;;21.13;74.12;99168.91;4927590;29;20022;-68
2022/07/27 00:50:09;;;;;;;;;;;;;;;21.10;74.33;99168.47;4926908;29;20287;-69
2022/07/27 00:52:36;;;;;;;;;;;;;;;21.10;74.27;99168.47;4927799;29;20307;-66
2022/07/27 00:55:04;;;;;;;;;;;;;;;21.09;74.23;99177.97;4926611;29;20429;-64
2022/07/27 00:57:29;;;;;;;;;;;;;;;21.11;74.81;99186.75;4926568;29;19934;-66
2022/07/27 00:59:55;;;;;;;;;;;;;;;21.09;74.74;99188.25;4929105;29;19986;-65
2022/07/27 01:02:21;;;;;;;;;;;;;;;21.08;74.87;99186.66;4926882;29;19931;-66
2022/07/27 01:04:46;;;;;;;;;;;;;;;21.09;74.89;99183.53;4924820;29;19938;-65
2022/07/27 01:07:12;;;;;;;;;;;;;;;21.05;74.73;99190.16;4929486;29;20406;-67
2022/07/27 01:09:56;;;;;;;;;;;;;;;20.98;74.93;99196.34;4920010;29;20190;-66
2022/07/27 01:12:24;;;;;;;;;;;;;;;20.91;74.93;99193.38;4908846;29;20024;-65
2022/07/27 01:14:50;;;;;;;;;;;;;;;20.87;75.33;99184.97;4910636;29;19977;-65
2022/07/27 01:17:16;;;;;;;;;;;;;;;20.88;75.49;99191.31;4909051;29;19967;-65
2022/07/27 01:19:43;;;;;;;;;;;;;;;20.89;75.59;99195.72;4914197;29;19931;-66
2022/07/27 01:22:10;;;;;;;;;;;;;;;20.90;75.47;99189.00;4925710;29;19931;-67
2022/07/27 01:24:36;;;;;;;;;;;;;;;20.89;75.30;99190.16;4927808;29;19931;-65
2022/07/27 01:27:02;;;;;;;;;;;;;;;20.90;75.29;99180.66;4926630;29;20399;-67
2022/07/27 01:29:28;;;;;;;;;;;;;;;20.96;75.36;99187.56;4926797;29;20402;-66
2022/07/27 01:31:54;;;;;;;;;;;;;;;21.02;75.50;99190.88;4929388;28;19937;-65
2022/07/27 01:34:21;;;;;;;;;;;;;;;21.02;75.42;99180.56;4929865;29;19956;-65
2022/07/27 01:36:47;;;;;;;;;;;;;;;21.03;75.41;99187.72;4926505;29;19931;-65
2022/07/27 01:39:15;;;;;;;;;;;;;;;21.05;75.60;99185.38;4925943;29;20320;-65
2022/07/27 01:41:41;;;;;;;;;;;;;;;21.05;75.23;99188.16;4924527;29;20427;-65
2022/07/27 01:44:07;;;;;;;;;;;;;;;21.04;75.33;99183.00;4927764;28;19930;-66
2022/07/27 01:46:32;;;;;;;;;;;;;;;21.03;75.63;99186.94;4930746;29;20303;-66
2022/07/27 01:48:58;;;;;;;;;;;;;;;21.03;75.30;99192.50;4928662;29;19931;-66
2022/07/27 01:51:24;;;;;;;;;;;;;;;21.02;75.62;99191.69;4930116;29;19974;-66
2022/07/27 01:53:50;;;;;;;;;;;;;;;21.01;75.12;99194.84;4926312;29;19931;-66
2022/07/27 01:56:17;;;;;;;;;;;;;;;21.01;75.45;99192.06;4945853;29;19931;-66
2022/07/27 01:58:43;;;;;;;;;;;;;;;21.05;75.25;99192.94;4930880;28;20317;-65
2022/07/27 02:01:09;;;;;;;;;;;;;;;21.06;75.49;99194.56;4926950;29;19935;-63
2022/07/27 02:03:35;;;;;;;;;;;;;;;21.10;75.27;99203.78;4928371;29;19970;-66
2022/07/27 02:06:01;;;;;;;;;;;;;;;21.10;75.38;99196.25;4929440;29;19941;-67
2022/07/27 02:08:27;;;;;;;;;;;;;;;21.13;75.24;99194.69;4926693;29;19977;-68
2022/07/27 02:13:41;;;;;;;;;;;;;;;21.15;75.16;99188.78;4930198;29;19937;-67
2022/07/27 02:16:07;;;;;;;;;;;;;;;21.14;75.07;99196.31;4932030;29;20445;-66
2022/07/27 02:18:33;;;;;;;;;;;;;;;21.18;74.81;99194.44;4928409;29;19934;-67
2022/07/27 02:20:59;;;;;;;;;;;;;;;21.22;74.77;99200.06;4930306;29;20458;-68
2022/07/27 02:23:25;;;;;;;;;;;;;;;21.25;74.93;99197.38;4928898;29;19938;-66
2022/07/27 02:25:50;;;;;;;;;;;;;;;21.30;74.76;99199.06;4932039;29;19930;-66
2022/07/27 02:28:16;;;;;;;;;;;;;;;21.33;74.85;99198.34;4944199;29;20040;-68
2022/07/27 02:30:43;;;;;;;;;;;;;;;21.34;74.36;99197.16;4930290;29;19954;-69
2022/07/27 02:33:09;;;;;;;;;;;;;;;21.34;74.85;99205.50;4928729;29;19940;-68
2022/07/27 02:35:35;;;;;;;;;;;;;;;21.23;74.80;99179.47;4943952;29;19934;-67
2022/07/27 02:38:00;;;;;;;;;;;;;;;21.35;74.91;99192.44;4930929;29;20321;-66
2022/07/27 02:40:26;;;;;;;;;;;;;;;21.36;74.62;99194.84;4932746;29;19931;-66
2022/07/27 02:42:52;;;;;;;;;;;;;;;21.43;74.67;99193.41;4931328;29;19931;-68
2022/07/27 02:45:18;;;;;;;;;;;;;;;21.48;73.99;99190.31;4932878;29;19930;-67
2022/07/27 02:47:45;;;;;;;;;;;;;;;21.50;74.06;99196.31;4932521;29;19986;-66
2022/07/27 02:50:11;;;;;;;;;;;;;;;21.51;74.21;99198.75;4932500;29;19934;-67
2022/07/27 02:52:37;;;;;;;;;;;;;;;21.57;74.00;99202.06;4927965;29;20107;-66
2022/07/27 02:55:03;;;;;;;;;;;;;;;21.61;74.07;99207.69;4929619;29;19934;-67
2022/07/27 02:57:30;;;;;;;;;;;;;;;21.68;73.77;99208.66;4923619;29;20033;-68
2022/07/27 02:59:56;;;;;;;;;;;;;;;21.74;73.68;99205.63;4912942;29;19978;-66
2022/07/27 03:02:22;;;;;;;;;;;;;;;21.78;73.71;99206.50;4909878;29;19931;-67
2022/07/27 03:04:49;;;;;;;;;;;;;;;21.82;73.40;99210.16;4911192;29;19943;-65
2022/07/27 03:07:15;;;;;;;;;;;;;;;21.87;73.31;99206.28;4924531;29;20139;-68
2022/07/27 03:09:41;;;;;;;;;;;;;;;21.93;73.36;99213.97;4931354;29;19931;-66
2022/07/27 03:12:07;;;;;;;;;;;;;;;21.98;72.85;99204.53;4928216;29;20363;-66
2022/07/27 03:14:32;;;;;;;;;;;;;;;22.01;72.84;99212.13;4929745;29;20422;-66
2022/07/27 03:16:58;;;;;;;;;;;;;;;22.04;73.02;99211.38;4929911;29;19930;-67
2022/07/27 03:19:24;;;;;;;;;;;;;;;22.07;72.85;99210.66;4930097;29;19930;-66
2022/07/27 03:21:51;;;;;;;;;;;;;;;22.10;72.77;99215.50;4929449;29;19986;-67
2022/07/27 03:24:17;;;;;;;;;;;;;;;22.15;72.78;99217.16;4926099;29;19934;-67
2022/07/27 03:26:43;;;;;;;;;;;;;;;22.22;73.07;99203.41;4929409;29;20060;-66
2022/07/27 03:29:08;;;;;;;;;;;;;;;22.28;72.63;99209.47;4928166;29;19965;-67
2022/07/27 03:31:34;;;;;;;;;;;;;;;22.32;72.01;99209.53;4929101;29;20045;-67
2022/07/27 03:34:00;;;;;;;;;;;;;;;22.32;72.03;99203.94;4928480;28;19966;-67
2022/07/27 03:36:26;;;;;;;;;;;;;;;22.33;71.59;99208.38;4945635;29;20402;-67
2022/07/27 03:38:53;;;;;;;;;;;;;;;22.35;72.02;99208.81;4927513;29;19939;-66
2022/07/27 03:41:18;;;;;;;;;;;;;;;22.39;72.00;99210.47;4924236;29;19946;-66
2022/07/27 03:43:44;;;;;;;;;;;;;;;22.45;71.78;99207.38;4911763;29;19938;-67
2022/07/27 03:46:11;;;;;;;;;;;;;;;22.51;71.34;99217.88;4910202;29;19930;-67
2022/07/27 03:48:37;;;;;;;;;;;;;;;22.54;71.39;99207.19;4908263;29;20418;-67
2022/07/27 03:51:02;;;;;;;;;;;;;;;22.55;71.20;99206.00;4921102;29;19931;-69
2022/07/27 03:53:28;;;;;;;;;;;;;;;22.54;70.82;99201.59;4929253;29;20840;-66
2022/07/27 03:55:55;;;;;;;;;;;;;;;22.55;70.72;99208.78;4929715;29;19938;-68
2022/07/27 03:58:22;;;;;;;;;;;;;;;22.57;70.69;99212.81;4930825;29;20041;-66
2022/07/27 04:00:48;;;;;;;;;;;;;;;22.61;70.47;99210.91;4927769;29;20037;-67
2022/07/27 04:03:13;;;;;;;;;;;;;;;22.66;70.31;99215.34;4930814;29;20029;-67
2022/07/27 04:05:39;;;;;;;;;;;;;;;22.72;70.47;99221.44;4927231;29;19962;-67
2022/07/27 04:08:05;;;;;;;;;;;;;;;22.75;70.54;99227.03;4928514;29;19941;-66
2022/07/27 04:10:30;;;;;;;;;;;;;;;22.76;70.21;99228.66;4927641;29;19939;-68
2022/07/27 04:12:58;;;;;;;;;;;;;;;22.79;70.15;99233.50;4930871;29;19930;-66
2022/07/27 04:15:24;;;;;;;;;;;;;;;22.83;69.95;99229.97;4911402;29;19931;-67
2022/07/27 04:17:50;;;;;;;;;;;;;;;22.87;70.24;99236.41;4907338;29;20311;-67
2022/07/27 04:20:15;;;;;;;;;;;;;;;22.90;69.82;99239.25;4909180;29;20306;-68
2022/07/27 04:22:41;;;;;;;;;;;;;;;22.94;69.69;99240.09;4918212;29;19931;-67
2022/07/27 04:25:07;;;;;;;;;;;;;;;22.97;69.71;99246.94;4924374;29;20427;-67
2022/07/27 04:27:33;;;;;;;;;;;;;;;23.03;69.43;99248.22;4894845;29;19938;-69
2022/07/27 04:30:00;;;;;;;;;;;;;;;23.09;69.00;99245.91;4917526;29;20464;-67
2022/07/27 04:32:26;;;;;;;;;;;;;;;23.15;68.85;99235.25;4927365;29;19931;-68
2022/07/27 04:34:52;;;;;;;;;;;;;;;23.19;68.84;99239.72;4942866;28;20034;-68
2022/07/27 04:37:18;;;;;;;;;;;;;;;23.26;68.96;99236.28;4926404;29;20029;-66
2022/07/27 04:39:43;;;;;;;;;;;;;;;23.32;68.42;99233.94;4926635;29;19953;-67
2022/07/27 04:42:09;;;;;;;;;;;;;;;23.38;68.26;99243.63;4928690;29;19946;-67
2022/07/27 04:44:35;;;;;;;;;;;;;;;23.42;68.18;99236.09;4925518;29;19973;-67
2022/07/27 04:47:02;;;;;;;;;;;;;;;23.49;67.99;99233.44;4923950;29;20505;-68
2022/07/27 04:49:28;;;;;;;;;;;;;;;23.54;67.69;99232.28;4926887;29;19957;-66
2022/07/27 04:51:53;;;;;;;;;;;;;;;23.62;67.51;99242.38;4928898;29;19931;-67
2022/07/27 04:54:19;;;;;;;;;;;;;;;23.74;66.89;99235.75;4910522;29;19950;-66
2022/07/27 04:56:45;;;;;;;;;;;;;;;23.84;66.46;99237.06;4912160;29;19931;-67
2022/07/27 04:59:11;;;;;;;;;;;;;;;23.93;66.18;99232.00;4925093;29;19939;-66
2022/07/27 05:01:36;;;;;;;;;;;;;;;23.97;66.13;99234.84;4923592;29;19931;-66
2022/07/27 05:04:04;;;;;;;;;;;;;;;24.02;66.08;99239.28;4909196;29;19931;-65
2022/07/27 05:06:31;;;;;;;;;;;;;;;24.06;65.96;99231.78;4892946;29;20463;-65
2022/07/27 05:08:57;;;;;;;;;;;;;;;24.11;65.58;99236.22;4910120;29;19979;-66
2022/07/27 05:11:23;;;;;;;;;;;;;;;24.13;65.75;99231.06;4909134;29;19954;-67
2022/07/27 05:13:49;;;;;;;;;;;;;;;24.19;65.66;99232.34;4942963;29;19931;-67
2022/07/27 05:16:14;;;;;;;;;;;;;;;24.25;65.53;99238.38;4929378;29;19930;-67
2022/07/27 05:18:40;;;;;;;;;;;;;;;24.32;65.32;99233.69;4927144;29;19931;-67
2022/07/27 05:21:08;;;;;;;;;;;;;;;24.39;65.12;99241.34;4928518;29;19941;-66
2022/07/27 05:23:34;;;;;;;;;;;;;;;24.46;64.93;99235.03;4925738;28;20321;-66
2022/07/27 05:26:00;;;;;;;;;;;;;;;24.53;64.54;99226.69;4928455;29;19962;-65
2022/07/27 05:28:26;;;;;;;;;;;;;;;24.58;64.49;99231.16;4927196;29;19931;-66
2022/07/27 05:30:52;;;;;;;;;;;;;;;24.66;64.09;99230.00;4941794;29;19938;-66
2022/07/27 05:33:17;;;;;;;;;;;;;;;24.72;63.92;99236.88;4930849;29;20033;-68
2022/07/27 05:35:43;;;;;;;;;;;;;;;24.81;63.43;99231.00;4944247;29;19931;-68
2022/07/27 05:38:10;;;;;;;;;;;;;;;24.89;62.98;99238.22;4931478;29;19950;-66
2022/07/27 05:40:36;;;;;;;;;;;;;;;24.98;62.78;99231.53;4930083;29;20390;-67
2022/07/27 05:43:02;;;;;;;;;;;;;;;25.01;62.35;99237.16;4927008;29;19970;-66
2022/07/27 05:45:28;;;;;;;;;;;;;;;25.07;61.83;99234.81;4929906;29;19931;-68
2022/07/27 05:47:54;;;;;;;;;;;;;;;25.14;61.92;99229.25;4929917;29;20037;-66
2022/07/27 05:50:20;;;;;;;;;;;;;;;25.24;61.48;99233.31;4931082;29;19931;-66
2022/07/27 05:52:45;;;;;;;;;;;;;;;25.35;61.15;99239.81;4930896;29;19931;-66
2022/07/27 05:55:13;;;;;;;;;;;;;;;25.45;60.56;99226.28;4930348;29;20349;-67
2022/07/27 05:57:42;;;;;;;;;;;;;;;25.51;60.55;99224.75;4930003;29;20394;-67
2022/07/27 06:00:09;;;;;;;;;;;;;;;25.57;60.09;99234.34;4929852;29;20541;-66
2022/07/27 06:02:38;;;;;;;;;;;;;;;25.66;60.09;99234.00;4931074;29;19931;-67
2022/07/27 06:05:04;;;;;;;;;;;;;;;25.75;59.41;99234.47;4933131;29;20437;-67
2022/07/27 06:10:16;;;;;;;;;;;;;;;25.91;59.00;99233.34;4929680;29;19930;-65
2022/07/27 06:12:43;;;;;;;;;;;;;;;25.98;58.36;99233.34;4929921;29;19938;-67
2022/07/27 06:15:09;;;;;;;;;;;;;;;26.03;58.23;99237.78;4930839;29;20001;-67
2022/07/27 06:17:35;;;;;;;;;;;;;;;26.07;57.87;99233.00;4937372;29;19935;-65
2022/07/27 06:20:01;;;;;;;;;;;;;;;26.18;57.74;99238.69;4926252;29;19937;-67
2022/07/27 06:22:28;;;;;;;;;;;;;;;26.32;57.50;99221.09;4915764;29;19930;-66
2022/07/27 06:24:53;;;;;;;;;;;;;;;26.49;56.69;99233.56;4932958;29;19938;-66
2022/07/27 06:27:21;;;;;;;;;;;;;;;26.66;56.06;99225.56;4932421;29;19973;-66
2022/07/27 06:29:46;;;;;;;;;;;;;;;26.72;55.91;99230.38;4932324;29;19931;-66
2022/07/27 06:32:12;;;;;;;;;;;;;;;26.88;55.34;99232.81;4929176;29;19953;-66
2022/07/27 06:34:38;;;;;;;;;;;;;;;27.03;54.76;99227.19;4907935;29;19930;-67
2022/07/27 06:37:03;;;;;;;;;;;;;;;27.12;54.24;99230.41;4915919;29;19954;-67
2022/07/27 06:39:29;;;;;;;;;;;;;;;27.22;53.97;99233.59;4927277;29;19930;-65
2022/07/27 06:41:55;;;;;;;;;;;;;;;27.41;53.38;99238.78;4936360;29;19937;-67
2022/07/27 06:44:22;;;;;;;;;;;;;;;27.53;52.48;99234.78;4922155;29;19941;-67
2022/07/27 06:46:48;;;;;;;;;;;;;;;27.58;52.18;99237.16;4923624;29;19931;-67
2022/07/27 06:49:14;;;;;;;;;;;;;;;27.65;51.76;99238.38;4916553;29;20535;-67
2022/07/27 06:51:39;;;;;;;;;;;;;;;27.68;51.50;99241.16;4582327;28;10000475;-68
2022/07/27 06:54:05;;;;;;;;;;;;;;;27.78;51.18;99245.13;4919814;29;20707;-67
2022/07/27 06:56:31;;;;;;;;;;;;;;;27.90;50.65;99246.72;4923748;29;20061;-66
2022/07/27 06:58:57;;;;;;;;;;;;;;;28.01;50.30;99241.81;4920244;29;19938;-68
2022/07/27 07:01:24;;;;;;;;;;;;;;;28.14;50.22;99242.19;4910329;29;19941;-68
2022/07/27 07:03:50;;;;;;;;;;;;;;;28.30;49.22;99250.16;4903167;29;19935;-68
2022/07/27 07:06:16;;;;;;;;;;;;;;;28.43;49.18;99252.50;4904199;29;19935;-67
2022/07/27 07:08:41;;;;;;;;;;;;;;;28.43;48.94;99239.25;4919971;29;20021;-67
2022/07/27 07:11:10;;;;;;;;;;;;;;;28.62;48.48;99245.56;4923837;29;20381;-68
2022/07/27 07:13:36;;;;;;;;;;;;;;;28.75;48.26;99245.06;4916272;29;19931;-66
2022/07/27 07:16:02;;;;;;;;;;;;;;;28.85;47.59;99247.03;4905585;29;20521;-68
2022/07/27 07:18:29;;;;;;;;;;;;;;;28.90;47.24;99249.41;4911709;29;20280;-68
2022/07/27 07:20:54;;;;;;;;;;;;;;;28.99;46.93;99248.94;4919234;29;19931;-67
2022/07/27 07:23:20;;;;;;;;;;;;;;;29.10;46.38;99246.03;4915827;29;20294;-68
2022/07/27 07:25:46;;;;;;;;;;;;;;;29.18;45.73;99256.00;4920038;29;20410;-68
2022/07/27 07:28:12;;;;;;;;;;;;;;;29.17;46.10;99245.16;4920272;29;19931;-69
2022/07/27 07:30:37;;;;;;;;;;;;;;;29.29;45.69;99253.09;4920845;29;19938;-67
2022/07/27 07:33:03;;;;;;;;;;;;;;;29.38;45.84;99252.63;4918623;29;19931;-67
2022/07/27 07:35:31;;;;;;;;;;;;;;;29.43;45.25;99252.19;4914351;29;19934;-67
2022/07/27 07:37:57;;;;;;;;;;;;;;;29.56;45.29;99260.88;4917543;29;19931;-67
2022/07/27 07:40:22;;;;;;;;;;;;;;;29.83;44.57;99257.38;4910617;29;19938;-67
2022/07/27 07:42:49;;;;;;;;;;;;;;;29.98;44.21;99258.03;4925237;29;19931;-67
2022/07/27 07:45:15;;;;;;;;;;;;;;;30.10;44.53;99260.28;4923766;29;20001;-68
2022/07/27 07:47:40;;;;;;;;;;;;;;;30.22;44.04;99258.94;4918060;29;19970;-66
2022/07/27 07:50:07;;;;;;;;;;;;;;;30.32;43.75;99257.22;4909654;29;19931;-67
2022/07/27 07:52:34;;;;;;;;;;;;;;;30.48;42.96;99248.09;4908217;29;19935;-68
2022/07/27 07:54:59;;;;;;;;;;;;;;;30.50;42.98;99253.34;4906081;29;19931;-67
2022/07/27 07:57:25;;;;;;;;;;;;;;;30.69;42.46;99255.47;4903269;29;19930;-67
2022/07/27 07:59:51;;;;;;;;;;;;;;;30.90;42.05;99253.53;4916568;29;19939;-67
2022/07/27 08:02:19;;;;;;;;;;;;;;;31.11;41.95;99255.22;4915035;29;19963;-66
2022/07/27 08:04:45;;;;;;;;;;;;;;;31.28;41.56;99263.81;4912972;29;19931;-65
2022/07/27 08:07:11;;;;;;;;;;;;;;;31.47;41.29;99262.28;4914764;29;19935;-64
2022/07/27 08:09:38;;;;;;;;;;;;;;;31.59;40.34;99262.88;4927172;29;20341;-65
2022/07/27 08:12:05;;;;;;;;;;;;;;;31.80;40.46;99256.84;4913532;29;19942;-63
2022/07/27 08:14:30;;;;;;;;;;;;;;;31.96;40.08;99250.47;4915814;29;19937;-66
2022/07/27 08:16:56;;;;;;;;;;;;;;;32.20;39.44;99249.56;4920133;29;19934;-65
2022/07/27 08:19:22;;;;;;;;;;;;;;;32.41;39.32;99247.53;4907253;29;19935;-64
2022/07/27 08:21:48;;;;;;;;;;;;;;;32.61;38.38;99244.66;4917335;29;20403;-65
2022/07/27 08:24:13;;;;;;;;;;;;;;;32.86;38.07;99246.88;4917613;28;20477;-63
2022/07/27 08:26:40;;;;;;;;;;;;;;;32.99;37.40;99254.69;4918983;29;20287;-64
2022/07/27 08:29:06;;;;;;;;;;;;;;;33.01;37.48;99243.72;4929140;29;20412;-64
2022/07/27 08:31:32;;;;;;;;;;;;;;;33.08;36.97;99250.00;4929998;29;20037;-65
2022/07/27 08:33:57;;;;;;;;;;;;;;;33.19;37.00;99249.72;4930383;29;20318;-65
2022/07/27 08:36:23;;;;;;;;;;;;;;;33.59;36.28;99247.91;4929792;29;19997;-65
2022/07/27 08:38:49;;;;;;;;;;;;;;;33.77;36.17;99242.53;4920106;29;20390;-65
2022/07/27 08:41:15;;;;;;;;;;;;;;;34.11;35.44;99239.56;4918967;29;20422;-65
2022/07/27 08:43:44;;;;;;;;;;;;;;;34.07;35.71;99246.13;4920660;29;19931;-65
2022/07/27 08:46:10;;;;;;;;;;;;;;;34.10;35.95;99247.25;4921388;28;20358;-65
2022/07/27 08:48:37;;;;;;;;;;;;;;;34.30;36.04;99246.28;4918502;29;19931;-65
2022/07/27 08:51:03;;;;;;;;;;;;;;;34.47;35.92;99253.44;4920714;29;19945;-64
2022/07/27 08:53:32;;;;;;;;;;;;;;;34.58;35.41;99247.47;4924014;29;19938;-64
2022/07/27 08:55:58;;;;;;;;;;;;;;;34.84;34.81;99252.31;4922380;29;19986;-64
2022/07/27 08:58:23;;;;;;;;;;;;;;;35.27;33.94;99253.75;4920683;29;20381;-65
2022/07/27 09:00:50;;;;;;;;;;;;;;;35.28;33.02;99254.50;4918396;29;19971;-65
2022/07/27 09:03:17;;;;;;;;;;;;;;;35.31;33.42;99253.63;4918089;29;20127;-68
2022/07/27 09:05:44;;;;;;;;;;;;;;;35.37;32.92;99248.94;4918717;29;19963;-66
2022/07/27 09:08:10;;;;;;;;;;;;;;;35.59;31.38;99249.00;4918959;29;19978;-65
2022/07/27 09:10:39;;;;;;;;;;;;;;;35.76;30.38;99255.28;4915090;29;20465;-67
2022/07/27 09:13:18;;;;;;;;;;;;;;;35.53;30.32;99250.84;4919724;29;20461;-65
2022/07/27 09:15:45;;;;;;;;;;;;;;;35.51;30.98;99250.44;4916117;29;19931;-64
2022/07/27 09:18:17;;;;;;;;;;;;;;;35.85;29.61;99256.59;4917692;29;19938;-66
2022/07/27 09:20:43;;;;;;;;;;;;;;;36.18;28.61;99259.84;4923262;29;19962;-65
2022/07/27 09:23:08;;;;;;;;;;;;;;;36.25;28.38;99257.97;4930783;29;19962;-66
2022/07/27 09:25:36;;;;;;;;;;;;;;;36.48;27.24;99254.63;4923569;28;19939;-65
2022/07/27 09:28:02;;;;;;;;;;;;;;;36.75;27.22;99255.22;4918117;29;19931;-65
2022/07/27 09:30:28;;;;;;;;;;;;;;;37.06;26.97;99254.38;4918583;29;19937;-64
2022/07/27 09:32:56;;;;;;;;;;;;;;;37.06;27.08;99257.22;4921518;29;20321;-64
2022/07/27 09:35:24;;;;;;;;;;;;;;;37.00;27.59;99259.84;4924757;29;20354;-65
2022/07/27 09:37:50;;;;;;;;;;;;;;;36.77;28.22;99254.75;4924356;29;20345;-66
2022/07/27 09:40:16;;;;;;;;;;;;;;;36.74;28.58;99262.16;4913843;29;19935;-64
2022/07/27 09:42:42;;;;;;;;;;;;;;;36.81;28.57;99264.72;4926912;29;20397;-66
2022/07/27 09:45:28;;;;;;;;;;;;;;;37.04;28.46;99266.22;4928124;29;19930;-65
2022/07/27 09:48:04;;;;;;;;;;;;;;;37.55;27.45;99252.69;4927876;29;19931;-66
2022/07/27 09:50:32;;;;;;;;;;;;;;;37.92;27.28;99251.06;4912559;29;19937;-65
2022/07/27 09:53:10;;;;;;;;;;;;;;;38.17;26.67;99264.19;4920305;29;20159;-66
2022/07/27 09:55:37;;;;;;;;;;;;;;;37.48;27.87;99250.13;4919129;29;20431;-65
2022/07/27 09:58:02;;;;;;;;;;;;;;;37.34;27.92;99268.66;4914609;29;20038;-65
2022/07/27 10:00:28;;;;;;;;;;;;;;;37.22;27.87;99250.41;4922163;29;20062;-66
2022/07/27 10:02:54;;;;;;;;;;;;;;;37.37;27.84;99252.66;4931926;29;19934;-65
2022/07/27 10:05:21;;;;;;;;;;;;;;;37.14;28.00;99258.47;4924072;28;20425;-67
2022/07/27 10:07:49;;;;;;;;;;;;;;;36.28;28.88;99251.34;4917303;29;19931;-65
2022/07/27 10:10:15;;;;;;;;;;;;;;;36.76;28.87;99239.72;4928371;29;19953;-66
2022/07/27 10:12:44;;;;;;;;;;;;;;;37.63;28.08;99247.47;4922043;29;20346;-65
2022/07/27 10:15:10;;;;;;;;;;;;;;;37.94;27.11;99254.22;4929289;29;19931;-64
2022/07/27 10:17:36;;;;;;;;;;;;;;;37.75;27.60;99254.25;4929248;29;19978;-65
2022/07/27 10:20:07;;;;;;;;;;;;;;;38.02;27.23;99250.59;4921920;29;19931;-65
2022/07/27 10:22:54;;;;;;;;;;;;;;;37.98;26.79;99240.59;4943927;28;20371;-66
2022/07/27 10:25:20;;;;;;;;;;;;;;;37.96;26.77;99245.97;4925332;29;19931;-66
2022/07/27 10:27:47;;;;;;;;;;;;;;;38.70;25.86;99247.81;4929207;29;20379;-65
2022/07/27 10:30:14;;;;;;;;;;;;;;;39.39;24.44;99250.94;4921701;29;20037;-65
2022/07/27 10:32:43;;;;;;;;;;;;;;;39.65;24.25;99256.13;4929401;29;19931;-65
2022/07/27 10:35:31;;;;;;;;;;;;;;;38.86;25.28;99235.22;4924778;29;19953;-65
2022/07/27 10:38:08;;;;;;;;;;;;;;;37.21;27.93;99234.59;4928234;29;20024;-65
2022/07/27 10:40:34;;;;;;;;;;;;;;;37.52;27.62;99235.75;4930753;29;20313;-66
2022/07/27 10:43:05;;;;;;;;;;;;;;;38.29;26.65;99245.28;4923567;29;19931;-65
2022/07/27 10:45:37;;;;;;;;;;;;;;;38.55;25.62;99244.91;4920929;29;19935;-65
2022/07/27 10:48:03;;;;;;;;;;;;;;;38.77;24.74;99229.53;4919884;29;19931;-65
2022/07/27 10:50:29;;;;;;;;;;;;;;;38.74;25.25;99228.47;4923751;29;19937;-66
2022/07/27 10:52:56;;;;;;;;;;;;;;;36.91;27.85;99231.34;4932010;29;20029;-67
2022/07/27 10:55:43;;;;;;;;;;;;;;;35.05;30.87;99231.78;4928298;29;19935;-65
2022/07/27 10:58:42;;;;;;;;;;;;;;;34.78;30.90;99243.56;4928207;29;19937;-65
2022/07/27 11:01:07;;;;;;;;;;;;;;;35.15;31.03;99241.16;4882625;29;20477;-65
2022/07/27 11:03:34;;;;;;;;;;;;;;;36.56;28.57;99246.63;4878674;29;19936;-66
2022/07/27 11:06:02;;;;;;;;;;;;;;;37.79;26.75;99254.09;4890328;29;19939;-66
2022/07/27 11:08:28;;;;;;;;;;;;;;;38.32;25.12;99237.84;4888886;29;19932;-64
2022/07/27 11:10:55;;;;;;;;;;;;;;;38.66;24.75;99244.38;4888854;29;19931;-65
2022/07/27 11:13:22;;;;;;;;;;;;;;;38.84;24.57;99232.06;4872704;29;19935;-65
2022/07/27 11:15:51;;;;;;;;;;;;;;;39.28;24.27;99233.53;4887957;29;19931;-66
2022/07/27 11:18:17;;;;;;;;;;;;;;;40.07;23.61;99233.47;4880487;29;19942;-66
2022/07/27 11:20:43;;;;;;;;;;;;;;;40.96;22.47;99234.59;4878464;29;19932;-65
2022/07/27 11:23:16;;;;;;;;;;;;;;;41.38;22.12;99221.88;4864664;29;19978;-66
2022/07/27 11:25:57;;;;;;;;;;;;;;;41.74;21.77;99224.59;4877184;29;20522;-66
2022/07/27 11:28:26;;;;;;;;;;;;;;;41.97;21.19;99221.94;4876504;29;19967;-65
2022/07/27 11:30:52;;;;;;;;;;;;;;;41.95;21.17;99224.53;4875061;29;19936;-65
2022/07/27 11:33:18;;;;;;;;;;;;;;;41.74;20.83;99220.94;4924247;29;19942;-66
2022/07/27 11:35:49;;;;;;;;;;;;;;;41.25;21.69;99230.81;4920844;29;20010;-66
2022/07/27 11:38:15;;;;;;;;;;;;;;;40.65;22.14;99230.25;4924246;29;20033;-66
2022/07/27 11:40:41;;;;;;;;;;;;;;;40.63;22.50;99212.78;4914174;29;19940;-65
2022/07/27 11:43:09;;;;;;;;;;;;;;;41.05;22.08;99208.66;4911048;29;20354;-65
2022/07/27 11:45:38;;;;;;;;;;;;;;;41.86;21.18;99202.56;4922396;29;19942;-65
2022/07/27 11:48:06;;;;;;;;;;;;;;;42.43;21.16;99202.22;4919568;29;19931;-65
2022/07/27 11:50:32;;;;;;;;;;;;;;;42.60;20.99;99202.34;4925439;29;20418;-64
2022/07/27 11:52:59;;;;;;;;;;;;;;;41.99;21.40;99205.00;4912174;29;19978;-64
2022/07/27 11:55:25;;;;;;;;;;;;;;;41.60;21.53;99206.19;4924100;29;19962;-65
2022/07/27 11:57:50;;;;;;;;;;;;;;;41.56;21.83;99202.75;4915245;29;19958;-66
2022/07/27 12:00:17;;;;;;;;;;;;;;;41.76;21.62;99196.22;4917243;29;19977;-65
2022/07/27 12:02:47;;;;;;;;;;;;;;;41.53;21.54;99195.19;4917802;29;19931;-66
2022/07/27 12:05:13;;;;;;;;;;;;;;;41.43;21.53;99185.16;4923241;29;19931;-65
2022/07/27 12:07:40;;;;;;;;;;;;;;;40.93;22.45;99187.69;4916416;29;19937;-66
2022/07/27 12:10:06;;;;;;;;;;;;;;;40.08;23.06;99181.47;4907031;29;20233;-64
2022/07/27 12:12:33;;;;;;;;;;;;;;;38.47;24.77;99193.09;4922731;29;19938;-65
2022/07/27 12:15:00;;;;;;;;;;;;;;;36.15;27.09;99197.41;4916380;29;19957;-64
2022/07/27 12:17:31;;;;;;;;;;;;;;;34.53;29.43;99185.63;4923086;29;20563;-64
2022/07/27 12:20:00;;;;;;;;;;;;;;;33.61;31.08;99183.88;4922672;29;19930;-64
2022/07/27 12:22:27;;;;;;;;;;;;;;;33.00;31.78;99177.81;4915229;28;20394;-64
2022/07/27 12:24:54;;;;;;;;;;;;;;;32.75;32.28;99178.41;4915564;29;20322;-64
2022/07/27 12:27:20;;;;;;;;;;;;;;;32.72;32.09;99182.16;4908102;29;20009;-65
2022/07/27 12:29:56;;;;;;;;;;;;;;;33.05;31.67;99176.47;4920026;29;20379;-65
2022/07/27 12:32:22;;;;;;;;;;;;;;;33.54;30.90;99175.59;4915892;29;20476;-65
2022/07/27 12:34:50;;;;;;;;;;;;;;;34.20;30.30;99172.41;4921409;29;20033;-66
2022/07/27 12:37:16;;;;;;;;;;;;;;;34.89;29.08;99177.91;4919131;29;19931;-65
2022/07/27 12:39:42;;;;;;;;;;;;;;;35.10;29.14;99175.63;4919357;29;19934;-65
2022/07/27 12:42:08;;;;;;;;;;;;;;;35.04;28.71;99172.59;4917986;29;20447;-66
2022/07/27 12:44:36;;;;;;;;;;;;;;;35.12;28.84;99173.91;4911515;29;19931;-65
2022/07/27 12:47:39;;;;;;;;;;;;;;;34.61;29.62;99160.63;4918584;29;19941;-65
2022/07/27 12:50:03;;;;;;;;;;;;;;;33.92;30.86;99162.75;4915969;29;19954;-66